Hovedside
METAR-TAF:

METAR-TAF

Lufthavner :

Bagdad, Irak

breddegrad: 33-15-45N, lengdegrad: 44-14-04E, høyde over havet: 35 m

Gjeldene værobservasjon

Denne rapporten ble laget for 53 minutter siden, klokken 17:00 UTC
Vind 8 kt fra Vest
Temperatur 35°C
Luftfuktighet 23%
Trykk 1002 hPa
Sikt 10 km eller mer
ingen skyer under 1500 m og ingen bygeskyer

METAR: ORBI 231700Z 28008KT CAVOK 35/11 Q1002 NOSIG

Tid: 20:53 (17:53 UTC)

Varsel

Denne rapporten ble laget for 1 time og 53 minutter siden, klokken 16:00 UTC
Varsel gyldig fra 23. klokken 18 UTC til 24. klokken 18 UTC
Vind 12 kt fra Nordvest
Sikt: 8000 m

TAF: ORBI 231600Z 2318/2418 32012KT 8000 NSC

Værobservasjoner og værvarsel for over 4000 flyplasser (METAR- og TAF-rapporter).

Tilgjengelige stasjoner er representert av de røde og gule prikkene på kartet.

Hold musepekeren over prikken for å se navnet på stasjonen.

Klikk så for å se værobservasjoner og -varsler.

For å forandre kartet kan du klikke på den grønne knappen med svart kryss for å zoome inn, på den grønne knappen med strek for å zoome ut, eller på de grønne pilene for å se tilstøtende kart.


METAR-TAF: